createdAt,value
2023-03-20T00:00:56.687Z,9.30
2023-03-20T00:03:25.150Z,9.30
2023-03-20T00:05:56.519Z,9.30
2023-03-20T00:08:29.722Z,9.20
2023-03-20T00:10:57.838Z,9.00
2023-03-20T00:13:28.243Z,9.20
2023-03-20T00:15:58.148Z,9.20
2023-03-20T00:18:29.534Z,9.20
2023-03-20T00:20:57.902Z,9.20
2023-03-20T00:23:26.201Z,9.20
2023-03-20T00:25:57.518Z,9.10
2023-03-20T00:28:39.173Z,9.10
2023-03-20T00:31:24.626Z,9.10
2023-03-20T00:33:53.625Z,9.10
2023-03-20T00:36:22.169Z,9.10
2023-03-20T00:38:51.125Z,9.10
2023-03-20T00:41:26.718Z,9.10
2023-03-20T00:44:00.401Z,9.10
2023-03-20T00:46:32.672Z,9.10
2023-03-20T00:49:03.637Z,9.10
2023-03-20T00:51:34.084Z,9.00
2023-03-20T00:54:02.242Z,9.10
2023-03-20T00:56:34.508Z,9.00
2023-03-20T00:59:04.226Z,9.00
2023-03-20T01:01:34.149Z,9.10
2023-03-20T01:04:02.478Z,8.90
2023-03-20T01:06:31.460Z,9.10
2023-03-20T01:09:00.279Z,9.10
2023-03-20T01:11:31.626Z,9.20
2023-03-20T01:13:59.940Z,9.10
2023-03-20T01:16:28.931Z,9.20
2023-03-20T01:19:03.899Z,9.30
2023-03-20T01:21:32.068Z,9.10
2023-03-20T01:24:00.372Z,9.00
2023-03-20T01:26:33.669Z,9.00
2023-03-20T01:29:02.089Z,9.00
2023-03-20T01:31:56.280Z,9.00
2023-03-20T01:34:26.232Z,8.90
2023-03-20T01:36:59.160Z,9.00
2023-03-20T01:39:33.256Z,9.00
2023-03-20T01:42:02.083Z,8.80
2023-03-20T01:44:32.154Z,8.90
2023-03-20T01:47:01.182Z,8.90
2023-03-20T01:50:19.382Z,8.90
2023-03-20T01:52:48.459Z,9.00
2023-03-20T01:55:16.762Z,9.00
2023-03-20T01:57:45.468Z,9.00
2023-03-20T02:00:17.024Z,9.00
2023-03-20T02:02:47.272Z,9.00
2023-03-20T02:05:23.752Z,9.00
2023-03-20T02:08:03.560Z,9.00
2023-03-20T02:10:32.102Z,9.00
2023-03-20T02:13:05.859Z,9.00
2023-03-20T02:15:35.972Z,9.10
2023-03-20T02:18:04.738Z,9.00
2023-03-20T02:20:57.484Z,9.00
2023-03-20T02:23:58.210Z,8.90
2023-03-20T02:26:37.642Z,8.90
2023-03-20T02:29:45.612Z,8.90
2023-03-20T02:33:01.269Z,8.90
2023-03-20T02:36:00.708Z,8.90
2023-03-20T02:38:54.677Z,8.90
2023-03-20T02:41:28.685Z,8.90
2023-03-20T02:44:08.994Z,8.80
2023-03-20T02:46:47.459Z,8.90
2023-03-20T02:49:25.374Z,8.80
2023-03-20T02:52:02.397Z,8.80
2023-03-20T02:54:39.453Z,8.80
2023-03-20T02:57:11.088Z,9.00
2023-03-20T02:59:46.932Z,8.90
2023-03-20T03:02:19.640Z,8.90
2023-03-20T03:04:53.606Z,8.90
2023-03-20T03:07:26.917Z,8.80
2023-03-20T03:10:01.670Z,9.00
2023-03-20T03:12:35.935Z,8.80
2023-03-20T03:15:07.595Z,8.80
2023-03-20T03:17:39.128Z,8.80
2023-03-20T03:20:16.712Z,8.80
2023-03-20T03:22:44.858Z,8.80
2023-03-20T03:25:15.319Z,8.90
2023-03-20T03:27:46.061Z,8.80
2023-03-20T03:30:19.141Z,8.70
2023-03-20T03:32:51.939Z,8.90
2023-03-20T03:35:22.342Z,8.90
2023-03-20T03:37:59.829Z,8.80
2023-03-20T03:40:37.215Z,8.80
2023-03-20T03:43:10.116Z,8.80
2023-03-20T03:45:42.733Z,8.80
2023-03-20T03:48:16.049Z,8.80
2023-03-20T03:50:49.021Z,8.80
2023-03-20T03:53:21.344Z,8.90
2023-03-20T03:55:55.632Z,8.80
2023-03-20T03:58:29.264Z,8.80
2023-03-20T04:01:01.859Z,8.80
2023-03-20T04:03:33.052Z,8.80
2023-03-20T04:06:03.012Z,8.80
2023-03-20T04:08:31.036Z,8.80
2023-03-20T04:11:03.581Z,8.70
2023-03-20T04:13:34.253Z,8.70
2023-03-20T04:16:02.508Z,8.80
2023-03-20T04:18:30.837Z,8.80
2023-03-20T04:20:58.834Z,8.70
2023-03-20T04:23:27.226Z,8.70
2023-03-20T04:25:55.871Z,8.70
2023-03-20T04:28:25.746Z,8.80
2023-03-20T04:30:55.673Z,8.80
2023-03-20T04:33:30.736Z,8.80
2023-03-20T04:35:59.197Z,8.80
2023-03-20T04:38:27.379Z,8.80
2023-03-20T04:40:56.731Z,8.80
2023-03-20T04:43:28.906Z,8.80
2023-03-20T04:45:58.221Z,8.80
2023-03-20T04:48:28.088Z,8.80
2023-03-20T04:50:59.585Z,8.70
2023-03-20T04:53:27.848Z,8.70
2023-03-20T04:56:02.296Z,8.70
2023-03-20T04:58:31.949Z,8.70
2023-03-20T05:01:00.362Z,8.80
2023-03-20T05:03:28.492Z,8.70
2023-03-20T05:05:56.676Z,8.70
2023-03-20T05:08:25.932Z,8.60
2023-03-20T05:10:57.197Z,8.60
2023-03-20T05:13:26.113Z,8.70
2023-03-20T05:15:58.566Z,8.60
2023-03-20T05:18:26.662Z,8.60
2023-03-20T05:20:54.696Z,8.60
2023-03-20T05:23:22.640Z,8.60
2023-03-20T05:25:50.810Z,8.70
2023-03-20T05:28:19.234Z,8.80
2023-03-20T05:30:47.745Z,8.60
2023-03-20T05:33:19.928Z,8.60
2023-03-20T05:35:48.300Z,8.70
2023-03-20T05:38:16.547Z,8.70
2023-03-20T05:40:46.297Z,8.80
2023-03-20T05:43:14.430Z,8.70
2023-03-20T05:45:43.981Z,8.70
2023-03-20T05:48:12.227Z,8.70
2023-03-20T05:50:41.723Z,8.70
2023-03-20T05:53:15.542Z,8.70
2023-03-20T05:55:44.846Z,8.70
2023-03-20T05:58:13.704Z,8.90
2023-03-20T06:00:41.860Z,8.70
2023-03-20T06:03:10.157Z,8.80
2023-03-20T06:05:38.473Z,8.80
2023-03-20T06:08:08.166Z,8.90
2023-03-20T06:10:36.292Z,8.80
2023-03-20T06:13:04.739Z,8.80
2023-03-20T06:15:33.048Z,8.80
2023-03-20T06:18:01.472Z,8.80
2023-03-20T06:20:30.039Z,8.80
2023-03-20T06:22:58.209Z,8.80
2023-03-20T06:25:28.120Z,8.80
2023-03-20T06:27:59.184Z,8.90
2023-03-20T06:30:27.240Z,8.90
2023-03-20T06:32:56.710Z,8.90
2023-03-20T06:35:24.990Z,8.90
2023-03-20T06:37:53.466Z,8.90
2023-03-20T06:40:25.690Z,8.90
2023-03-20T06:42:56.170Z,8.90
2023-03-20T06:45:24.375Z,8.90
2023-03-20T06:47:52.465Z,8.90
2023-03-20T06:50:20.885Z,8.90
2023-03-20T06:52:49.231Z,8.90
2023-03-20T06:55:17.457Z,9.00
2023-03-20T06:57:46.652Z,9.00
2023-03-20T07:00:21.694Z,9.10
2023-03-20T07:02:50.291Z,9.00
2023-03-20T07:05:18.819Z,9.00
2023-03-20T07:07:47.136Z,9.10
2023-03-20T07:10:15.273Z,9.00
2023-03-20T07:12:45.114Z,9.10
2023-03-20T07:15:20.299Z,9.10
2023-03-20T07:17:48.612Z,9.10
2023-03-20T07:20:16.902Z,9.10
2023-03-20T07:22:45.269Z,9.30
2023-03-20T07:25:13.525Z,9.20
2023-03-20T07:27:43.157Z,9.20
2023-03-20T07:30:13.464Z,9.30
2023-03-20T07:32:43.385Z,9.10
2023-03-20T07:35:11.922Z,9.30
2023-03-20T07:37:40.809Z,9.30
2023-03-20T07:40:10.560Z,9.20
2023-03-20T07:42:39.368Z,9.30
2023-03-20T07:45:10.677Z,9.30
2023-03-20T07:47:39.041Z,9.30
2023-03-20T07:50:09.766Z,9.40
2023-03-20T07:52:37.990Z,9.20
2023-03-20T07:55:07.394Z,9.40
2023-03-20T07:57:35.458Z,9.20
2023-03-20T08:00:04.875Z,9.20
2023-03-20T08:02:34.612Z,9.20
2023-03-20T08:05:07.158Z,9.20
2023-03-20T08:07:37.173Z,9.20
2023-03-20T08:10:08.511Z,9.20
2023-03-20T08:12:36.819Z,9.20
2023-03-20T08:15:05.752Z,9.20
2023-03-20T08:17:34.106Z,9.20
2023-03-20T08:20:02.181Z,9.10
2023-03-20T08:22:30.474Z,9.10
2023-03-20T08:24:59.802Z,9.30
2023-03-20T08:27:27.698Z,9.20
2023-03-20T08:29:56.000Z,9.20
2023-03-20T08:32:24.114Z,9.30
2023-03-20T08:34:55.896Z,9.30
2023-03-20T08:37:24.288Z,9.40
2023-03-20T08:39:52.502Z,9.30
2023-03-20T08:42:22.138Z,9.30
2023-03-20T08:44:50.566Z,9.30
2023-03-20T08:47:18.690Z,9.40
2023-03-20T08:49:47.109Z,9.50
2023-03-20T08:52:15.307Z,9.50
2023-03-20T08:54:43.533Z,9.50
2023-03-20T08:57:12.000Z,9.60
2023-03-20T08:59:41.518Z,9.70
2023-03-20T09:02:14.510Z,9.70
2023-03-20T09:04:42.757Z,9.70
2023-03-20T09:07:11.453Z,9.80
2023-03-20T09:09:39.709Z,9.90
2023-03-20T09:12:08.374Z,9.80
2023-03-20T09:14:37.124Z,9.80
2023-03-20T09:17:06.949Z,9.80
2023-03-20T09:19:35.280Z,9.80
2023-03-20T09:22:05.739Z,9.80
2023-03-20T09:24:34.348Z,9.90
2023-03-20T09:27:05.192Z,9.80
2023-03-20T09:29:33.231Z,9.90
2023-03-20T09:32:01.283Z,9.90
2023-03-20T09:34:30.946Z,10.00
2023-03-20T09:37:03.323Z,10.00
2023-03-20T09:39:31.414Z,10.00
2023-03-20T09:42:04.557Z,10.20
2023-03-20T09:44:47.059Z,10.10
2023-03-20T09:47:23.081Z,10.20
2023-03-20T09:50:10.875Z,10.20
2023-03-20T09:52:42.401Z,10.30
2023-03-20T09:55:15.871Z,10.30
2023-03-20T09:57:46.922Z,10.40
2023-03-20T10:00:18.780Z,10.30
2023-03-20T10:02:54.914Z,10.50
2023-03-20T10:05:31.318Z,10.30
2023-03-20T10:08:02.029Z,10.40
2023-03-20T10:10:40.920Z,10.40
2023-03-20T10:13:39.613Z,10.40
2023-03-20T10:16:19.135Z,10.40
2023-03-20T10:18:57.384Z,10.40
2023-03-20T10:21:37.424Z,10.40
2023-03-20T10:24:09.238Z,10.40
2023-03-20T10:26:37.595Z,10.40
2023-03-20T10:29:12.854Z,10.50
2023-03-20T10:31:47.764Z,10.40
2023-03-20T10:34:31.882Z,10.50
2023-03-20T10:37:19.316Z,10.50
2023-03-20T10:39:58.546Z,10.50
2023-03-20T10:42:32.356Z,10.40
2023-03-20T10:45:06.234Z,10.40
2023-03-20T10:47:42.865Z,10.40
2023-03-20T10:50:17.938Z,10.30
2023-03-20T10:52:50.695Z,10.50
2023-03-20T10:55:22.607Z,10.50
2023-03-20T10:57:58.214Z,10.60
2023-03-20T11:00:28.764Z,10.50
2023-03-20T11:02:57.384Z,10.60
2023-03-20T11:05:32.542Z,10.90
2023-03-20T11:08:08.804Z,10.70
2023-03-20T11:10:39.364Z,10.70
2023-03-20T11:13:19.537Z,10.70
2023-03-20T11:15:48.046Z,10.80
2023-03-20T11:18:19.425Z,10.80
2023-03-20T11:20:51.072Z,10.90
2023-03-20T11:23:26.369Z,10.90
2023-03-20T11:25:59.114Z,10.90
2023-03-20T11:28:33.373Z,10.80
2023-03-20T11:31:06.953Z,10.80
2023-03-20T11:33:38.760Z,10.80
2023-03-20T11:36:13.386Z,10.80
2023-03-20T11:38:49.582Z,10.80
2023-03-20T11:41:20.396Z,10.80
2023-03-20T11:43:48.756Z,10.80
2023-03-20T11:46:16.976Z,10.70
2023-03-20T11:48:46.988Z,10.70
2023-03-20T11:51:18.450Z,10.60
2023-03-20T11:54:02.168Z,10.70
2023-03-20T11:56:32.840Z,10.60
2023-03-20T11:59:04.873Z,10.60
2023-03-20T12:01:44.698Z,10.60
2023-03-20T12:04:14.959Z,10.60
2023-03-20T12:06:48.604Z,10.70
2023-03-20T12:09:34.666Z,10.70
2023-03-20T12:12:04.919Z,10.60
2023-03-20T12:14:40.157Z,10.60
2023-03-20T12:17:28.233Z,10.80
2023-03-20T12:20:00.789Z,10.60
2023-03-20T12:22:35.652Z,10.60
2023-03-20T12:25:16.643Z,10.60
2023-03-20T12:27:49.047Z,10.50
2023-03-20T12:30:22.852Z,10.50
2023-03-20T12:32:55.885Z,10.50
2023-03-20T12:35:28.396Z,10.50
2023-03-20T12:37:59.964Z,10.40
2023-03-20T12:40:39.808Z,10.50
2023-03-20T12:43:16.070Z,10.50
2023-03-20T12:45:52.996Z,10.70
2023-03-20T12:48:46.886Z,10.50
2023-03-20T12:51:23.229Z,10.60
2023-03-20T12:54:01.496Z,10.60
2023-03-20T12:56:44.643Z,10.50
2023-03-20T12:59:20.638Z,10.60
2023-03-20T13:01:53.894Z,10.60
2023-03-20T13:04:41.989Z,10.70
2023-03-20T13:07:19.728Z,10.60
2023-03-20T13:10:10.304Z,10.60
2023-03-20T13:12:48.658Z,10.50
2023-03-20T13:15:31.611Z,10.60
2023-03-20T13:18:07.854Z,10.70
2023-03-20T13:20:40.506Z,10.80
2023-03-20T13:23:22.296Z,10.70
2023-03-20T13:26:17.544Z,10.70
2023-03-20T13:28:57.655Z,10.70
2023-03-20T13:31:36.065Z,10.60
2023-03-20T13:34:14.835Z,10.60
2023-03-20T13:37:02.546Z,10.70
2023-03-20T13:39:39.222Z,10.60
2023-03-20T13:42:14.019Z,10.60
2023-03-20T13:44:48.826Z,10.70
2023-03-20T13:47:33.941Z,10.60
2023-03-20T13:50:28.190Z,10.60
2023-03-20T13:53:07.980Z,10.60
2023-03-20T13:55:47.024Z,10.60
2023-03-20T13:58:47.772Z,10.50
2023-03-20T14:01:23.913Z,10.50
2023-03-20T14:03:55.009Z,10.60
2023-03-20T14:06:50.148Z,10.60
2023-03-20T14:09:31.004Z,10.60
2023-03-20T14:12:06.404Z,10.50
2023-03-20T14:14:44.489Z,10.60
2023-03-20T14:17:22.569Z,10.60
2023-03-20T14:19:52.258Z,10.60
2023-03-20T14:22:23.589Z,10.60
2023-03-20T14:24:57.267Z,10.60
2023-03-20T14:27:43.441Z,10.80
2023-03-20T14:30:42.385Z,10.60
2023-03-20T14:33:31.206Z,10.70
2023-03-20T14:36:21.952Z,10.60
2023-03-20T14:39:20.478Z,10.70
2023-03-20T14:42:03.899Z,10.70
2023-03-20T14:44:48.604Z,10.70
2023-03-20T14:47:27.710Z,10.80
2023-03-20T14:50:12.819Z,10.80
2023-03-20T14:52:54.375Z,10.80
2023-03-20T14:55:35.438Z,10.80
2023-03-20T14:58:05.940Z,10.80
2023-03-20T15:00:45.298Z,10.80
2023-03-20T15:03:17.564Z,10.90
2023-03-20T15:05:57.173Z,10.90
2023-03-20T15:08:30.045Z,10.90
2023-03-20T15:11:06.746Z,10.90
2023-03-20T15:13:36.456Z,10.90
2023-03-20T15:16:08.258Z,10.90
2023-03-20T15:18:39.999Z,10.90
2023-03-20T15:21:16.199Z,10.90
2023-03-20T15:23:45.041Z,10.90
2023-03-20T15:26:17.130Z,11.00
2023-03-20T15:28:47.241Z,10.90
2023-03-20T15:31:27.001Z,11.00
2023-03-20T15:33:56.736Z,11.00
2023-03-20T15:36:34.756Z,11.00
2023-03-20T15:39:14.405Z,11.10
2023-03-20T15:41:47.397Z,11.00
2023-03-20T15:44:21.387Z,11.00
2023-03-20T15:46:59.534Z,11.00
2023-03-20T15:49:29.289Z,11.00
2023-03-20T15:52:02.539Z,11.00
2023-03-20T15:54:31.329Z,11.00
2023-03-20T15:57:01.940Z,11.00
2023-03-20T15:59:33.982Z,11.00
2023-03-20T16:02:03.678Z,11.00
2023-03-20T16:04:32.106Z,11.00
2023-03-20T16:07:03.260Z,11.00
2023-03-20T16:09:32.500Z,11.10
2023-03-20T16:12:02.244Z,11.10
2023-03-20T16:14:33.537Z,11.00
2023-03-20T16:17:03.556Z,11.00
2023-03-20T16:19:32.060Z,11.10
2023-03-20T16:22:06.352Z,11.00
2023-03-20T16:24:38.290Z,11.00
2023-03-20T16:27:09.299Z,11.00
2023-03-20T16:29:42.240Z,11.00
2023-03-20T16:32:26.917Z,11.00
2023-03-20T16:34:59.583Z,11.00
2023-03-20T16:37:31.839Z,10.90
2023-03-20T16:40:21.533Z,10.90
2023-03-20T16:42:50.529Z,10.90
2023-03-20T16:45:26.618Z,10.90
2023-03-20T16:48:25.325Z,10.90
2023-03-20T16:51:08.857Z,10.90
2023-03-20T16:53:45.733Z,10.90
2023-03-20T16:56:17.382Z,10.90
2023-03-20T16:58:47.395Z,10.90
2023-03-20T17:01:21.719Z,10.90
2023-03-20T17:03:55.042Z,10.90
2023-03-20T17:06:37.658Z,10.80
2023-03-20T17:09:28.827Z,10.80
2023-03-20T17:12:04.335Z,10.80
2023-03-20T17:14:32.677Z,10.80
2023-03-20T17:17:03.685Z,10.80
2023-03-20T17:19:33.747Z,10.80
2023-03-20T17:22:05.873Z,10.80
2023-03-20T17:24:35.287Z,10.90
2023-03-20T17:27:03.445Z,10.80
2023-03-20T17:29:31.752Z,10.80
2023-03-20T17:32:00.182Z,10.80
2023-03-20T17:34:28.523Z,10.80
2023-03-20T17:36:57.402Z,10.80
2023-03-20T17:39:25.471Z,10.80
2023-03-20T17:41:58.248Z,10.80
2023-03-20T17:44:26.497Z,10.80
2023-03-20T17:46:58.753Z,10.80
2023-03-20T17:49:28.385Z,10.80
2023-03-20T17:51:59.002Z,10.80
2023-03-20T17:54:30.331Z,10.90
2023-03-20T17:57:00.115Z,10.80
2023-03-20T17:59:31.107Z,10.80
2023-03-20T18:01:59.324Z,10.90
2023-03-20T18:04:27.459Z,10.80
2023-03-20T18:06:58.309Z,10.80
2023-03-20T18:09:30.749Z,10.80
2023-03-20T18:12:00.570Z,10.90
2023-03-20T18:14:28.802Z,10.80
2023-03-20T18:16:57.100Z,10.80
2023-03-20T18:19:28.378Z,10.80
2023-03-20T18:22:00.421Z,10.80
2023-03-20T18:24:28.678Z,10.80
2023-03-20T18:26:59.061Z,10.80
2023-03-20T18:29:28.857Z,10.90
2023-03-20T18:31:56.974Z,10.80
2023-03-20T18:34:36.317Z,10.80
2023-03-20T18:37:08.001Z,10.80
2023-03-20T18:39:36.156Z,10.80
2023-03-20T18:42:05.927Z,10.90
2023-03-20T18:44:35.660Z,10.90
2023-03-20T18:47:03.660Z,10.80
2023-03-20T18:49:46.653Z,10.90
2023-03-20T18:52:14.895Z,10.90
2023-03-20T18:54:47.344Z,10.90
2023-03-20T18:57:15.797Z,10.80
2023-03-20T18:59:52.498Z,10.90
2023-03-20T19:02:21.054Z,11.00
2023-03-20T19:04:49.152Z,10.80
2023-03-20T19:07:19.895Z,10.80
2023-03-20T19:09:55.532Z,10.80
2023-03-20T19:12:29.744Z,10.90
2023-03-20T19:15:07.298Z,10.90
2023-03-20T19:17:35.506Z,10.90
2023-03-20T19:20:07.760Z,10.90
2023-03-20T19:22:37.026Z,10.80
2023-03-20T19:25:05.807Z,10.90
2023-03-20T19:27:33.874Z,10.90
2023-03-20T19:30:05.868Z,10.90
2023-03-20T19:32:34.251Z,10.80
2023-03-20T19:35:41.321Z,10.80
2023-03-20T19:37:50.893Z,10.90
2023-03-20T19:40:25.597Z,10.90
2023-03-20T19:43:02.464Z,10.90
2023-03-20T19:45:37.046Z,10.90
2023-03-20T19:48:13.563Z,10.90
2023-03-20T19:50:46.663Z,11.00
2023-03-20T19:53:18.929Z,10.90
2023-03-20T19:55:47.720Z,10.90
2023-03-20T19:58:15.974Z,10.90
2023-03-20T20:00:58.899Z,10.90
2023-03-20T20:03:28.059Z,10.90
2023-03-20T20:05:59.902Z,11.00
2023-03-20T20:08:44.294Z,11.00
2023-03-20T20:11:21.749Z,11.00
2023-03-20T20:14:08.031Z,11.00
2023-03-20T20:16:40.611Z,10.90
2023-03-20T20:19:09.279Z,11.00
2023-03-20T20:24:28.661Z,11.00
2023-03-20T20:27:15.921Z,11.00
2023-03-20T20:29:49.114Z,11.00
2023-03-20T20:32:20.787Z,11.00
2023-03-20T20:38:28.224Z,11.00
2023-03-20T20:40:31.133Z,10.90
2023-03-20T20:43:02.166Z,10.90
2023-03-20T20:45:36.507Z,11.00
2023-03-20T20:48:07.438Z,11.00
2023-03-20T20:50:38.836Z,10.90
2023-03-20T20:53:08.292Z,11.00
2023-03-20T20:55:39.141Z,11.00
2023-03-20T20:58:07.584Z,10.90
2023-03-20T21:00:49.557Z,11.20
2023-03-20T21:03:21.524Z,10.90
2023-03-20T21:05:49.974Z,10.90
2023-03-20T21:08:18.861Z,11.00
2023-03-20T21:10:56.916Z,10.90
2023-03-20T21:13:27.747Z,10.90
2023-03-20T21:15:59.014Z,10.90
2023-03-20T21:18:28.901Z,10.90
2023-03-20T21:21:05.392Z,10.90
2023-03-20T21:23:33.477Z,10.80
2023-03-20T21:26:01.835Z,10.80
2023-03-20T21:28:30.253Z,10.80
2023-03-20T21:31:23.482Z,10.70
2023-03-20T21:33:53.560Z,10.80
2023-03-20T21:36:25.343Z,10.90
2023-03-20T21:39:08.267Z,10.90
2023-03-20T21:41:38.391Z,10.90
2023-03-20T21:44:07.670Z,10.90
2023-03-20T21:50:25.817Z,11.00
2023-03-20T22:04:19.020Z,10.90
2023-03-20T22:12:59.467Z,10.80
2023-03-20T22:18:12.138Z,10.80
2023-03-20T22:29:48.334Z,10.80
2023-03-20T22:35:22.912Z,10.80
2023-03-20T22:38:08.473Z,10.80
2023-03-20T22:40:59.990Z,10.70
2023-03-20T22:44:04.911Z,10.80
2023-03-20T22:46:10.009Z,10.80
2023-03-20T22:48:46.846Z,10.80
2023-03-20T22:51:16.528Z,10.70
2023-03-20T22:53:48.557Z,10.80
2023-03-20T22:56:18.964Z,10.80
2023-03-20T22:58:50.340Z,11.00
2023-03-20T23:01:18.487Z,10.80
2023-03-20T23:03:46.673Z,10.80
2023-03-20T23:06:22.772Z,11.00
2023-03-20T23:08:56.559Z,10.90
2023-03-20T23:11:31.818Z,10.90
2023-03-20T23:14:01.611Z,10.80
2023-03-20T23:16:31.663Z,11.00
2023-03-20T23:19:00.039Z,10.80
2023-03-20T23:21:28.429Z,10.80
2023-03-20T23:23:56.536Z,10.90
2023-03-20T23:26:24.665Z,10.90
2023-03-20T23:28:54.524Z,10.90
2023-03-20T23:31:24.610Z,11.00
2023-03-20T23:33:54.809Z,10.90
2023-03-20T23:36:35.416Z,10.90
2023-03-20T23:39:04.987Z,10.90
2023-03-20T23:42:01.836Z,10.80
2023-03-20T23:44:23.070Z,10.80
2023-03-20T23:46:51.295Z,10.80
2023-03-20T23:49:19.889Z,10.90
2023-03-20T23:51:48.086Z,10.80
2023-03-20T23:54:18.922Z,10.90
2023-03-20T23:56:49.939Z,10.90
2023-03-20T23:59:22.022Z,10.90
